Time;durP1;ratioP1;P1;durP2;ratioP2;P2;SDS_P1;SDS_P2;PMS_P1;PMS_P2;Temp;Humidity;BMP_temperature;BMP_pressure;BME280_temperature;BME280_humidity;BME280_pressure;Samples;Min_cycle;Max_cycle;Signal;HPM_P1;HPM_P2
2023/03/23 00:01:12;;;;;;;1.05;1.02;;;17.20;58.50;;;;;;5055570;28;20175;-59
2023/03/23 00:03:38;;;;;;;1.55;1.20;;;17.20;58.50;;;;;;5055412;28;20325;-58
2023/03/23 00:06:06;;;;;;;2.08;1.08;;;17.20;58.50;;;;;;5054523;28;20626;-58
2023/03/23 00:08:33;;;;;;;1.60;1.15;;;17.20;58.50;;;;;;5055331;28;20177;-56
2023/03/23 00:11:01;;;;;;;0.95;0.90;;;17.20;58.60;;;;;;5055048;28;20285;-55
2023/03/23 00:13:27;;;;;;;2.33;1.23;;;17.20;58.60;;;;;;5054487;28;20175;-57
2023/03/23 00:15:52;;;;;;;1.17;1.10;;;17.20;58.60;;;;;;5054857;28;20183;-57
2023/03/23 00:18:21;;;;;;;2.65;1.10;;;17.20;58.50;;;;;;5054449;28;20240;-58
2023/03/23 00:20:48;;;;;;;5.00;1.40;;;17.20;58.50;;;;;;5054541;28;20255;-56
2023/03/23 00:23:18;;;;;;;1.27;1.00;;;17.20;58.50;;;;;;5055194;28;20197;-56
2023/03/23 00:25:47;;;;;;;2.03;1.10;;;17.10;58.50;;;;;;5053892;28;20175;-56
2023/03/23 00:28:14;;;;;;;1.70;1.08;;;17.10;58.50;;;;;;5054905;28;20222;-56
2023/03/23 00:30:41;;;;;;;1.05;0.82;;;17.00;58.50;;;;;;5054821;28;20219;-57
2023/03/23 00:33:07;;;;;;;2.05;1.05;;;17.10;58.50;;;;;;5054238;28;20186;-58
2023/03/23 00:35:34;;;;;;;2.50;1.13;;;17.10;58.50;;;;;;5054945;28;20175;-57
2023/03/23 00:38:00;;;;;;;2.03;0.93;;;17.10;58.50;;;;;;5054393;28;20259;-58
2023/03/23 00:40:26;;;;;;;1.77;1.02;;;17.10;58.50;;;;;;5053937;28;20262;-57
2023/03/23 00:42:59;;;;;;;0.98;0.95;;;17.10;58.50;;;;;;5054408;28;20222;-58
2023/03/23 00:45:25;;;;;;;1.63;1.00;;;17.10;58.50;;;;;;5054472;28;20218;-57
2023/03/23 00:47:50;;;;;;;1.63;1.20;;;17.00;58.50;;;;;;5053676;28;20648;-58
2023/03/23 00:50:17;;;;;;;1.23;1.02;;;17.00;58.50;;;;;;5054645;28;20210;-56
2023/03/23 00:52:42;;;;;;;1.40;1.30;;;17.00;58.50;;;;;;5054332;28;20554;-57
2023/03/23 00:55:08;;;;;;;1.60;0.90;;;17.00;58.50;;;;;;5053685;28;20660;-56
2023/03/23 00:57:34;;;;;;;1.90;0.90;;;17.00;58.50;;;;;;5054434;28;20642;-57
2023/03/23 00:59:59;;;;;;;1.25;1.10;;;17.00;58.50;;;;;;5054049;28;20171;-57
2023/03/23 01:02:25;;;;;;;1.50;1.10;;;17.00;58.50;;;;;;5053776;28;20182;-58
2023/03/23 01:04:52;;;;;;;1.92;1.20;;;17.00;58.50;;;;;;5054120;28;20185;-57
2023/03/23 01:07:20;;;;;;;1.67;1.05;;;17.00;59.10;;;;;;5054020;28;20172;-57
2023/03/23 01:09:47;;;;;;;1.00;0.90;;;17.00;58.50;;;;;;5053500;28;20218;-56
2023/03/23 01:12:14;;;;;;;0.95;0.95;;;17.00;58.50;;;;;;5054238;28;20180;-56
2023/03/23 01:14:40;;;;;;;1.77;1.30;;;17.00;58.60;;;;;;5053499;28;20171;-56
2023/03/23 01:17:06;;;;;;;1.42;1.08;;;16.90;58.50;;;;;;5053804;28;20209;-58
2023/03/23 01:19:31;;;;;;;1.30;1.20;;;16.90;58.50;;;;;;5053893;28;20239;-57
2023/03/23 01:21:57;;;;;;;1.52;0.82;;;16.90;58.50;;;;;;5052908;28;20167;-57
2023/03/23 01:24:22;;;;;;;1.40;0.90;;;16.90;58.50;;;;;;5054073;28;20202;-57
2023/03/23 01:26:48;;;;;;;2.38;1.00;;;16.90;58.50;;;;;;5053536;28;20175;-57
2023/03/23 01:29:13;;;;;;;1.40;1.30;;;16.90;58.50;;;;;;5053110;28;20261;-57
2023/03/23 01:31:39;;;;;;;1.48;1.10;;;16.90;58.50;;;;;;5053596;28;20297;-57
2023/03/23 01:34:05;;;;;;;0.95;0.90;;;16.90;58.50;;;;;;5053535;28;20190;-58
2023/03/23 01:36:32;;;;;;;1.23;1.05;;;16.90;58.50;;;;;;5052937;28;20186;-58
2023/03/23 01:38:58;;;;;;;2.60;0.90;;;16.90;58.50;;;;;;5052978;28;20207;-57
2023/03/23 01:41:24;;;;;;;1.40;1.10;;;16.90;58.50;;;;;;5053446;28;20179;-57
2023/03/23 01:44:01;;;;;;;1.10;1.00;;;16.90;58.50;;;;;;5051367;28;20622;-57
2023/03/23 01:46:27;;;;;;;1.88;1.10;;;16.90;58.50;;;;;;5053446;28;20186;-57
2023/03/23 01:48:53;;;;;;;1.80;0.90;;;16.90;58.50;;;;;;5053097;28;20254;-57
2023/03/23 01:51:19;;;;;;;1.73;1.20;;;16.90;58.50;;;;;;5052792;28;20211;-55
2023/03/23 01:53:58;;;;;;;1.83;1.20;;;16.80;58.40;;;;;;5051861;28;20179;-55
2023/03/23 01:56:26;;;;;;;2.22;1.00;;;16.80;58.50;;;;;;5052353;28;20179;-58
2023/03/23 01:58:55;;;;;;;1.40;1.30;;;16.80;58.50;;;;;;5050937;28;20630;-58
2023/03/23 02:01:21;;;;;;;1.08;0.98;;;16.80;59.00;;;;;;5053278;28;20175;-58
2023/03/23 02:03:48;;;;;;;1.20;1.10;;;16.80;58.40;;;;;;5051082;28;20313;-58
2023/03/23 02:06:13;;;;;;;1.23;0.98;;;16.80;58.40;;;;;;5053118;28;20174;-58
2023/03/23 02:08:40;;;;;;;0.98;0.95;;;16.80;58.40;;;;;;5052419;28;20717;-57
2023/03/23 02:11:22;;;;;;;2.38;1.10;;;16.80;58.40;;;;;;5050768;28;20646;-56
2023/03/23 02:13:48;;;;;;;1.20;1.10;;;16.80;58.50;;;;;;5052829;28;20181;-57
2023/03/23 02:16:16;;;;;;;1.38;0.93;;;16.80;58.40;;;;;;5051919;28;20261;-57
2023/03/23 02:19:03;;;;;;;1.33;1.23;;;16.80;58.40;;;;;;5051819;28;20541;-57
2023/03/23 02:22:02;;;;;;;1.58;1.48;;;16.80;58.40;;;;;;5052145;28;20190;-57
2023/03/23 02:24:30;;;;;;;1.00;0.90;;;16.80;58.40;;;;;;5051789;28;20214;-56
2023/03/23 02:27:12;;;;;;;1.00;0.90;;;16.80;58.50;;;;;;5051692;28;20198;-57
2023/03/23 02:29:49;;;;;;;1.50;1.40;;;16.80;58.40;;;;;;5051585;28;20324;-57
2023/03/23 02:32:52;;;;;;;1.50;1.30;;;16.80;58.40;;;;;;5051057;28;20259;-58
2023/03/23 02:35:20;;;;;;;1.33;1.02;;;16.70;58.40;;;;;;5051776;28;20186;-57
2023/03/23 02:37:46;;;;;;;0.93;0.93;;;16.80;58.40;;;;;;5034695;28;20175;-57
2023/03/23 02:40:13;;;;;;;1.20;1.10;;;16.70;58.40;;;;;;5052215;28;20250;-58
2023/03/23 02:42:40;;;;;;;1.70;1.25;;;16.70;58.40;;;;;;5051661;28;20179;-58
2023/03/23 02:45:08;;;;;;;1.25;1.10;;;16.70;58.40;;;;;;5051224;28;20634;-58
2023/03/23 02:47:33;;;;;;;1.10;1.10;;;16.70;58.40;;;;;;5050700;28;20167;-58
2023/03/23 02:49:59;;;;;;;2.13;1.45;;;16.70;58.40;;;;;;5050905;28;20285;-57
2023/03/23 02:52:27;;;;;;;2.38;1.27;;;16.70;58.40;;;;;;5051424;28;20571;-57
2023/03/23 02:54:53;;;;;;;1.27;1.20;;;16.70;58.40;;;;;;5034123;28;20214;-57
2023/03/23 02:57:19;;;;;;;1.10;1.00;;;16.70;58.50;;;;;;5034937;28;20249;-57
2023/03/23 02:59:45;;;;;;;1.30;1.20;;;16.70;58.40;;;;;;5052231;28;20182;-57
2023/03/23 03:02:32;;;;;;;1.20;0.95;;;16.70;58.40;;;;;;5050718;28;20190;-58
2023/03/23 03:05:06;;;;;;;1.58;1.48;;;16.70;58.40;;;;;;5051987;28;20186;-57
2023/03/23 03:07:48;;;;;;;1.60;1.02;;;16.70;58.50;;;;;;5051660;28;20177;-57
2023/03/23 03:10:19;;;;;;;1.30;1.20;;;16.70;58.40;;;;;;5052626;28;20203;-57
2023/03/23 03:12:54;;;;;;;0.98;0.98;;;16.70;58.50;;;;;;5035075;28;20186;-55
2023/03/23 03:16:04;;;;;;;1.55;1.23;;;16.70;58.50;;;;;;5050547;28;20171;-57
2023/03/23 03:18:37;;;;;;;1.20;1.10;;;16.60;58.40;;;;;;5013826;28;20262;-57
2023/03/23 03:21:04;;;;;;;0.95;0.95;;;16.60;58.40;;;;;;5047715;28;20564;-62
2023/03/23 03:23:30;;;;;;;1.15;1.00;;;16.70;58.50;;;;;;5056100;28;20249;-57
2023/03/23 03:25:57;;;;;;;0.93;0.90;;;16.60;58.40;;;;;;5037977;28;20228;-56
2023/03/23 03:28:23;;;;;;;1.00;1.00;;;16.70;58.50;;;;;;5054293;28;20183;-56
2023/03/23 03:30:56;;;;;;;1.27;1.17;;;16.60;58.40;;;;;;5054533;28;20535;-56
2023/03/23 03:33:25;;;;;;;1.92;1.05;;;16.60;58.40;;;;;;5038723;28;20175;-56
2023/03/23 03:35:52;;;;;;;1.35;1.00;;;16.70;58.50;;;;;;5054921;28;20194;-57
2023/03/23 03:38:17;;;;;;;1.70;1.10;;;16.60;58.40;;;;;;5038315;28;20171;-58
2023/03/23 03:40:43;;;;;;;1.45;0.95;;;16.60;58.40;;;;;;5055780;28;20672;-57
2023/03/23 03:43:08;;;;;;;1.42;1.10;;;16.60;58.40;;;;;;5055522;28;20233;-58
2023/03/23 03:45:34;;;;;;;1.50;1.30;;;16.60;58.40;;;;;;5055901;28;20175;-57
2023/03/23 03:48:01;;;;;;;1.20;1.10;;;16.60;58.40;;;;;;5055441;28;20175;-57
2023/03/23 03:50:27;;;;;;;1.20;1.13;;;16.60;58.40;;;;;;5055023;28;20207;-55
2023/03/23 03:52:52;;;;;;;1.42;1.27;;;16.60;58.40;;;;;;5055279;28;20186;-54
2023/03/23 03:55:18;;;;;;;1.17;1.08;;;16.60;58.40;;;;;;5055748;28;20167;-55
2023/03/23 03:57:43;;;;;;;1.20;1.20;;;16.60;58.40;;;;;;5054733;28;20171;-57
2023/03/23 04:00:14;;;;;;;1.05;1.00;;;16.60;58.40;;;;;;5055704;28;20172;-58
2023/03/23 04:02:54;;;;;;;1.30;1.20;;;16.60;58.40;;;;;;5055533;28;20186;-58
2023/03/23 04:05:20;;;;;;;1.05;1.00;;;16.60;58.40;;;;;;5054555;28;20213;-56
2023/03/23 04:07:49;;;;;;;1.30;1.20;;;16.60;59.10;;;;;;5055276;28;20179;-56
2023/03/23 04:10:14;;;;;;;1.52;1.27;;;16.60;58.40;;;;;;5054749;28;20271;-56
2023/03/23 04:12:40;;;;;;;0.95;0.95;;;16.60;58.40;;;;;;5055189;28;20259;-56
2023/03/23 04:15:07;;;;;;;1.08;1.08;;;16.60;58.40;;;;;;5054968;28;20171;-57
2023/03/23 04:17:33;;;;;;;1.35;1.25;;;16.60;58.40;;;;;;5054440;28;20208;-57
2023/03/23 04:19:59;;;;;;;1.67;1.05;;;16.60;58.40;;;;;;5054660;28;20560;-57
2023/03/23 04:22:29;;;;;;;1.33;1.20;;;16.60;58.40;;;;;;5055237;28;20305;-56
2023/03/23 04:25:00;;;;;;;2.08;1.27;;;16.60;58.40;;;;;;5053954;28;20187;-56
2023/03/23 04:27:28;;;;;;;1.30;1.20;;;16.60;58.40;;;;;;5055107;28;20183;-55
2023/03/23 04:29:58;;;;;;;0.88;0.88;;;16.60;58.40;;;;;;5054506;28;20273;-57
2023/03/23 04:32:28;;;;;;;1.17;1.08;;;16.60;58.40;;;;;;5053760;28;20175;-56
2023/03/23 04:34:54;;;;;;;1.23;1.10;;;16.60;58.40;;;;;;5054567;28;20175;-59
2023/03/23 04:37:20;;;;;;;0.88;0.88;;;16.50;58.40;;;;;;5054911;28;20175;-57
2023/03/23 04:39:45;;;;;;;0.90;0.90;;;16.50;58.50;;;;;;5053766;28;20171;-56
2023/03/23 04:42:14;;;;;;;1.38;1.15;;;16.50;58.40;;;;;;5054642;28;20170;-58
2023/03/23 04:44:39;;;;;;;1.23;1.13;;;16.50;58.40;;;;;;5054623;28;20198;-58
2023/03/23 04:47:09;;;;;;;1.20;1.10;;;16.50;58.40;;;;;;5053500;28;20525;-58
2023/03/23 04:49:35;;;;;;;1.13;1.02;;;16.50;58.40;;;;;;5054638;28;20541;-57
2023/03/23 04:52:01;;;;;;;1.00;0.90;;;16.50;58.40;;;;;;5054392;28;20244;-56
2023/03/23 04:54:28;;;;;;;1.40;1.30;;;16.50;58.40;;;;;;5053778;28;20636;-56
2023/03/23 04:56:54;;;;;;;1.00;0.95;;;16.50;58.40;;;;;;5053209;28;20179;-58
2023/03/23 04:59:21;;;;;;;1.35;1.00;;;16.50;58.40;;;;;;5054371;28;20290;-58
2023/03/23 05:01:47;;;;;;;1.20;1.15;;;16.40;58.40;;;;;;5053134;28;20171;-58
2023/03/23 05:04:16;;;;;;;1.17;1.08;;;16.50;58.40;;;;;;5054420;28;20171;-58
2023/03/23 05:06:45;;;;;;;1.45;1.00;;;16.50;58.40;;;;;;5053265;28;20551;-58
2023/03/23 05:09:11;;;;;;;1.20;1.20;;;16.50;58.40;;;;;;5054218;28;20175;-57
2023/03/23 05:11:36;;;;;;;1.70;1.25;;;16.50;58.40;;;;;;5054124;28;20278;-56
2023/03/23 05:14:04;;;;;;;1.52;1.30;;;16.50;58.40;;;;;;5052791;28;20199;-56
2023/03/23 05:16:32;;;;;;;1.17;1.08;;;16.50;58.40;;;;;;5054198;28;20179;-57
2023/03/23 05:18:58;;;;;;;0.88;0.88;;;16.50;58.40;;;;;;5053536;28;20207;-57
2023/03/23 05:21:24;;;;;;;0.82;0.82;;;16.50;58.40;;;;;;5053284;28;20190;-58
2023/03/23 05:23:54;;;;;;;1.45;1.17;;;16.50;58.40;;;;;;5053689;28;20166;-58
2023/03/23 05:26:21;;;;;;;1.52;0.95;;;16.50;58.40;;;;;;5053981;28;20186;-57
2023/03/23 05:28:48;;;;;;;1.27;1.15;;;16.40;58.40;;;;;;5052690;28;20552;-57
2023/03/23 05:31:13;;;;;;;1.38;1.20;;;16.50;58.40;;;;;;5053825;28;20206;-58
2023/03/23 05:33:39;;;;;;;1.30;1.20;;;16.40;58.40;;;;;;5053834;28;20253;-58
2023/03/23 05:36:06;;;;;;;0.98;0.98;;;16.40;58.40;;;;;;5052784;28;20167;-58
2023/03/23 05:38:32;;;;;;;1.30;1.20;;;16.40;58.40;;;;;;5053450;28;20206;-58
2023/03/23 05:41:01;;;;;;;1.25;1.13;;;16.40;58.40;;;;;;5053177;28;20211;-58
2023/03/23 05:43:26;;;;;;;1.48;1.38;;;16.40;58.40;;;;;;5051948;28;20262;-58
2023/03/23 05:45:52;;;;;;;1.55;1.20;;;16.40;58.40;;;;;;5053088;28;20222;-58
2023/03/23 05:48:17;;;;;;;1.35;1.10;;;16.40;58.40;;;;;;5053658;28;20167;-58
2023/03/23 05:50:43;;;;;;;1.70;1.35;;;16.50;58.40;;;;;;5052405;28;20221;-56
2023/03/23 05:53:09;;;;;;;0.98;0.98;;;16.40;58.40;;;;;;5053418;28;20172;-57
2023/03/23 05:55:35;;;;;;;2.15;1.27;;;16.40;58.40;;;;;;5053276;28;20248;-58
2023/03/23 05:58:00;;;;;;;1.08;1.02;;;16.40;58.30;;;;;;5052216;28;20171;-58
2023/03/23 06:00:28;;;;;;;1.75;1.25;;;16.40;59.00;;;;;;5053422;28;20634;-58
2023/03/23 06:02:56;;;;;;;1.60;1.08;;;16.40;58.30;;;;;;5052339;28;20190;-59
2023/03/23 06:05:22;;;;;;;1.23;1.10;;;16.40;58.30;;;;;;5053068;28;20646;-58
2023/03/23 06:07:47;;;;;;;1.35;1.00;;;16.40;58.30;;;;;;5052785;28;20182;-55
2023/03/23 06:10:13;;;;;;;1.45;1.30;;;16.40;58.30;;;;;;5052302;28;20201;-55
2023/03/23 06:12:39;;;;;;;1.42;1.33;;;16.40;58.40;;;;;;5052960;28;20685;-57
2023/03/23 06:15:06;;;;;;;2.97;1.25;;;16.40;58.30;;;;;;5052907;28;20634;-57
2023/03/23 06:17:33;;;;;;;1.98;1.38;;;16.40;58.30;;;;;;5052347;28;20606;-58
2023/03/23 06:19:58;;;;;;;2.10;1.23;;;16.40;58.30;;;;;;5052510;28;20227;-58
2023/03/23 06:22:24;;;;;;;1.17;1.10;;;16.40;58.30;;;;;;5052838;28;20174;-59
2023/03/23 06:24:50;;;;;;;1.20;1.10;;;16.40;58.30;;;;;;5051950;28;20197;-58
2023/03/23 06:27:17;;;;;;;1.25;1.15;;;16.40;58.30;;;;;;5052777;28;20626;-57
2023/03/23 06:29:43;;;;;;;2.05;1.05;;;16.40;58.30;;;;;;5052598;28;20179;-58
2023/03/23 06:32:10;;;;;;;2.58;1.00;;;16.40;58.30;;;;;;5052053;28;20205;-58
2023/03/23 06:34:36;;;;;;;2.00;1.27;;;16.30;58.30;;;;;;5035249;28;20183;-59
2023/03/23 06:37:01;;;;;;;1.60;1.27;;;16.30;58.30;;;;;;5052480;28;20600;-59
2023/03/23 06:39:27;;;;;;;1.30;1.17;;;16.40;58.30;;;;;;5052046;28;20228;-59
2023/03/23 06:41:53;;;;;;;1.77;1.63;;;16.30;58.20;;;;;;5052629;28;20172;-59
2023/03/23 06:44:18;;;;;;;1.67;1.27;;;16.40;58.30;;;;;;5052823;28;20214;-59
2023/03/23 06:46:44;;;;;;;3.05;0.90;;;16.30;58.30;;;;;;5051765;28;20206;-59
2023/03/23 06:49:09;;;;;;;1.42;1.10;;;16.30;58.30;;;;;;5052814;28;20178;-59
2023/03/23 06:51:36;;;;;;;3.00;1.40;;;16.40;58.30;;;;;;5052581;28;20223;-57
2023/03/23 06:54:01;;;;;;;2.28;1.25;;;16.40;58.30;;;;;;5051500;28;20604;-57
2023/03/23 06:56:27;;;;;;;1.77;1.20;;;16.30;58.90;;;;;;5056387;28;20654;-57
2023/03/23 06:58:53;;;;;;;1.58;1.15;;;16.30;58.20;;;;;;5056479;28;20173;-59
2023/03/23 07:01:18;;;;;;;2.00;1.33;;;16.30;58.30;;;;;;5055805;28;20179;-59
2023/03/23 07:03:44;;;;;;;1.38;1.27;;;16.30;58.20;;;;;;5056399;28;20172;-59
2023/03/23 07:06:10;;;;;;;1.92;1.20;;;16.30;58.30;;;;;;5055830;28;20173;-58
2023/03/23 07:08:36;;;;;;;1.15;1.05;;;16.40;58.30;;;;;;5056269;28;20209;-58
2023/03/23 07:11:02;;;;;;;2.60;1.30;;;16.40;58.10;;;;;;5056143;28;20219;-57
2023/03/23 07:13:27;;;;;;;2.42;1.13;;;16.40;58.00;;;;;;5055824;28;20171;-58
2023/03/23 07:15:53;;;;;;;2.33;1.25;;;16.40;58.00;;;;;;5056437;28;20697;-58
2023/03/23 07:18:19;;;;;;;1.88;1.20;;;16.50;58.10;;;;;;5056298;28;20182;-58
2023/03/23 07:20:51;;;;;;;1.25;0.90;;;16.50;58.10;;;;;;5055008;28;20697;-58
2023/03/23 07:23:17;;;;;;;2.42;1.20;;;16.40;58.10;;;;;;5056183;28;20171;-58
2023/03/23 07:25:43;;;;;;;1.65;1.13;;;16.40;58.10;;;;;;5055837;28;20183;-57
2023/03/23 07:28:08;;;;;;;1.90;1.13;;;16.40;58.10;;;;;;5055462;28;20638;-58
2023/03/23 07:30:34;;;;;;;1.60;1.30;;;16.40;58.10;;;;;;5055946;28;20700;-58
2023/03/23 07:32:59;;;;;;;1.23;1.00;;;16.50;58.10;;;;;;5055794;28;20183;-58
2023/03/23 07:35:25;;;;;;;1.65;1.30;;;16.40;58.10;;;;;;5054081;28;20646;-58
2023/03/23 07:37:51;;;;;;;1.10;1.00;;;16.40;58.10;;;;;;5055397;28;20164;-59
2023/03/23 07:40:17;;;;;;;2.83;1.40;;;16.40;58.10;;;;;;5056049;28;20175;-59
2023/03/23 07:42:44;;;;;;;1.60;1.10;;;16.40;58.10;;;;;;5054980;28;20179;-59
2023/03/23 07:45:11;;;;;;;1.85;1.02;;;16.40;58.10;;;;;;5055896;28;20246;-59
2023/03/23 07:47:37;;;;;;;1.75;1.33;;;16.40;58.20;;;;;;5055759;28;20653;-59
2023/03/23 07:50:03;;;;;;;1.42;1.20;;;16.40;58.20;;;;;;5054705;28;20199;-58
2023/03/23 07:52:30;;;;;;;2.38;1.23;;;16.40;58.20;;;;;;5055489;28;20207;-57
2023/03/23 07:54:56;;;;;;;1.27;1.17;;;16.40;58.20;;;;;;5055503;28;20262;-58
2023/03/23 07:57:22;;;;;;;1.40;1.30;;;16.40;58.20;;;;;;5054883;28;20266;-58
2023/03/23 07:59:47;;;;;;;1.88;0.95;;;16.40;58.20;;;;;;5055326;28;20175;-59
2023/03/23 08:02:13;;;;;;;1.45;1.00;;;16.40;58.20;;;;;;5055539;28;20629;-59
2023/03/23 08:04:39;;;;;;;1.38;1.17;;;16.30;58.20;;;;;;5054660;28;20175;-59
2023/03/23 08:07:04;;;;;;;0.90;0.90;;;16.30;58.20;;;;;;5054097;28;20175;-59
2023/03/23 08:09:31;;;;;;;1.27;1.17;;;16.30;58.20;;;;;;5054854;28;20650;-56
2023/03/23 08:11:57;;;;;;;1.73;1.10;;;16.30;58.20;;;;;;5054653;28;20708;-69
2023/03/23 08:14:28;;;;;;;2.95;1.20;;;16.40;58.50;;;;;;5055162;28;20183;-65
2023/03/23 08:16:55;;;;;;;2.90;1.40;;;16.40;58.50;;;;;;5054057;28;20240;-65
2023/03/23 08:19:21;;;;;;;2.33;1.20;;;16.40;58.40;;;;;;5054743;28;20357;-65
2023/03/23 08:21:48;;;;;;;1.92;1.02;;;16.40;58.30;;;;;;5054931;28;20194;-67
2023/03/23 08:24:14;;;;;;;7.75;1.50;;;16.40;58.30;;;;;;5054390;28;20179;-64
2023/03/23 08:26:40;;;;;;;3.55;1.42;;;16.50;58.70;;;;;;5054862;28;20653;-63
2023/03/23 08:29:05;;;;;;;4.93;2.15;;;16.50;58.50;;;;;;5054370;28;20631;-64
2023/03/23 08:31:34;;;;;;;3.70;1.50;;;16.50;58.90;;;;;;5053837;28;20309;-65
2023/03/23 08:34:00;;;;;;;3.92;1.30;;;16.60;58.50;;;;;;5053224;28;20182;-66
2023/03/23 08:36:26;;;;;;;3.50;1.30;;;16.60;58.40;;;;;;5052493;28;20262;-64
2023/03/23 08:38:52;;;;;;;3.38;1.10;;;16.60;58.40;;;;;;5053341;28;20254;-65
2023/03/23 08:41:18;;;;;;;4.68;1.40;;;16.60;58.50;;;;;;5054272;28;20232;-64
2023/03/23 08:43:44;;;;;;;3.28;1.20;;;16.60;58.50;;;;;;5054025;28;20167;-64
2023/03/23 08:46:11;;;;;;;3.03;1.15;;;16.60;58.60;;;;;;5053761;28;20179;-65
2023/03/23 08:48:36;;;;;;;3.10;1.20;;;16.60;58.50;;;;;;5054243;28;20179;-64
2023/03/23 08:51:06;;;;;;;2.35;1.30;;;16.60;58.50;;;;;;5053731;28;20559;-63
2023/03/23 08:53:31;;;;;;;2.10;1.20;;;16.60;58.50;;;;;;5053770;28;20214;-64
2023/03/23 08:56:03;;;;;;;2.88;1.63;;;16.60;58.50;;;;;;5053854;28;20179;-66
2023/03/23 08:58:29;;;;;;;2.17;1.30;;;16.70;58.50;;;;;;5054028;28;20649;-64
2023/03/23 09:00:54;;;;;;;1.65;1.15;;;16.70;58.50;;;;;;5052795;28;20179;-66
2023/03/23 09:03:20;;;;;;;1.35;1.25;;;16.70;58.60;;;;;;5054028;28;20171;-65
2023/03/23 09:05:45;;;;;;;3.80;1.27;;;16.70;58.60;;;;;;5053188;28;20605;-65
2023/03/23 09:08:12;;;;;;;3.55;1.30;;;16.70;59.00;;;;;;5054394;28;20177;-64
2023/03/23 09:10:38;;;;;;;1.98;1.08;;;16.70;59.50;;;;;;5053870;28;20293;-65
2023/03/23 09:13:04;;;;;;;1.80;1.05;;;16.70;59.20;;;;;;5052535;28;20183;-65
2023/03/23 09:15:30;;;;;;;1.83;1.20;;;16.60;59.40;;;;;;5053614;28;20698;-64
2023/03/23 09:17:57;;;;;;;1.63;1.20;;;16.60;59.40;;;;;;5053368;28;20270;-63
2023/03/23 09:20:24;;;;;;;3.70;1.30;;;16.60;59.20;;;;;;5052985;28;20222;-65
2023/03/23 09:22:51;;;;;;;2.88;0.90;;;16.60;59.20;;;;;;5053577;28;20233;-64
2023/03/23 09:25:21;;;;;;;3.83;1.65;;;16.60;59.20;;;;;;5053783;28;20278;-64
2023/03/23 09:27:51;;;;;;;1.52;1.25;;;16.70;59.10;;;;;;5052798;28;20209;-64
2023/03/23 09:30:18;;;;;;;3.58;1.50;;;16.80;58.80;;;;;;5053523;28;20199;-64
2023/03/23 09:32:44;;;;;;;4.43;1.00;;;16.90;58.80;;;;;;5053420;28;20215;-64
2023/03/23 09:35:11;;;;;;;4.60;1.30;;;17.00;58.80;;;;;;5052993;28;20194;-64
2023/03/23 09:37:38;;;;;;;1.98;0.80;;;17.10;58.70;;;;;;5053518;28;20244;-65
2023/03/23 09:40:05;;;;;;;3.10;1.20;;;17.50;58.60;;;;;;5053292;28;20171;-64
2023/03/23 09:42:35;;;;;;;3.75;1.10;;;17.40;58.30;;;;;;5052740;28;20201;-64
2023/03/23 09:45:07;;;;;;;3.20;1.10;;;17.60;57.90;;;;;;5051676;28;20179;-64
2023/03/23 09:48:04;;;;;;;5.50;1.10;;;17.80;57.90;;;;;;5052306;28;20183;-63
2023/03/23 09:50:32;;;;;;;2.33;1.30;;;18.00;57.80;;;;;;5051939;28;20299;-62
2023/03/23 09:53:21;;;;;;;3.30;1.02;;;18.10;57.70;;;;;;5052846;28;20171;-63
2023/03/23 09:55:48;;;;;;;4.43;1.13;;;18.40;57.30;;;;;;5050981;28;20552;-65
2023/03/23 09:58:20;;;;;;;2.55;1.13;;;18.60;56.90;;;;;;5053191;28;20205;-63
2023/03/23 10:01:01;;;;;;;1.10;0.93;;;18.80;56.70;;;;;;5052684;28;20553;-65
2023/03/23 10:03:37;;;;;;;4.13;0.95;;;18.90;56.50;;;;;;5051026;28;20167;-65
2023/03/23 10:06:04;;;;;;;1.95;0.93;;;18.90;56.50;;;;;;5051863;28;20541;-66
2023/03/23 10:08:34;;;;;;;3.00;0.90;;;18.90;56.50;;;;;;5053067;28;20171;-66
2023/03/23 10:11:23;;;;;;;3.13;0.70;;;19.00;56.50;;;;;;5050355;28;20246;-64
2023/03/23 10:13:55;;;;;;;2.70;0.80;;;19.10;56.30;;;;;;5049626;28;20242;-65
2023/03/23 10:16:30;;;;;;;2.28;0.82;;;19.20;56.10;;;;;;5051513;28;20537;-65
2023/03/23 10:18:55;;;;;;;3.92;1.10;;;19.20;56.00;;;;;;5048132;28;20226;-66
2023/03/23 10:21:22;;;;;;;2.00;0.80;;;19.20;55.80;;;;;;5052440;28;20179;-65
2023/03/23 10:24:01;;;;;;;2.65;1.27;;;19.10;56.10;;;;;;5050011;28;20175;-65
2023/03/23 10:27:17;;;;;;;1.02;0.70;;;19.10;56.20;;;;;;5032822;28;20183;-69
2023/03/23 10:29:46;;;;;;;1.55;0.82;;;19.10;56.30;;;;;;4974193;28;20181;-69
2023/03/23 10:32:42;;;;;;;3.20;1.00;;;19.00;56.50;;;;;;4974428;28;20634;-72
2023/03/23 10:35:13;;;;;;;2.47;1.00;;;18.90;56.70;;;;;;5008499;28;20180;-73
2023/03/23 10:37:41;;;;;;;2.80;1.00;;;18.80;56.90;;;;;;5030983;28;20175;-72
2023/03/23 10:40:23;;;;;;;2.20;0.85;;;18.70;57.10;;;;;;5031090;28;20562;-70
2023/03/23 10:42:49;;;;;;;2.47;1.30;;;18.70;57.20;;;;;;5032660;28;20538;-70
2023/03/23 10:45:21;;;;;;;1.48;0.88;;;18.70;57.30;;;;;;5030670;28;20643;-69
2023/03/23 10:47:50;;;;;;;1.90;1.00;;;18.70;57.40;;;;;;5031247;28;20176;-69
2023/03/23 10:50:22;;;;;;;2.95;0.93;;;18.70;57.40;;;;;;5031482;28;20207;-69
2023/03/23 10:52:47;;;;;;;1.95;0.90;;;18.70;57.20;;;;;;5030913;28;20259;-69
2023/03/23 10:55:17;;;;;;;2.38;1.02;;;18.70;57.30;;;;;;5031274;28;20203;-70
2023/03/23 10:58:07;;;;;;;2.08;1.10;;;18.70;57.40;;;;;;5032286;28;20275;-71
2023/03/23 11:00:33;;;;;;;1.73;0.80;;;18.60;57.50;;;;;;5031994;28;20237;-70
2023/03/23 11:03:07;;;;;;;2.75;1.30;;;18.60;57.30;;;;;;5031186;28;20179;-69
2023/03/23 11:05:42;;;;;;;2.90;0.90;;;18.60;57.40;;;;;;5032095;28;20180;-69
2023/03/23 11:08:15;;;;;;;2.85;1.05;;;18.60;57.50;;;;;;5031295;28;20179;-69
2023/03/23 11:10:48;;;;;;;1.92;1.40;;;18.60;57.50;;;;;;5031627;28;20211;-69
2023/03/23 11:13:15;;;;;;;1.60;0.80;;;18.60;57.40;;;;;;5030798;28;20184;-70
2023/03/23 11:15:42;;;;;;;3.10;1.00;;;18.60;57.40;;;;;;5032465;28;20172;-70
2023/03/23 11:18:19;;;;;;;2.40;0.70;;;18.60;57.50;;;;;;5032201;28;20643;-72
2023/03/23 11:20:48;;;;;;;3.05;0.90;;;18.60;57.50;;;;;;5031055;28;20306;-69
2023/03/23 11:23:22;;;;;;;1.88;1.10;;;18.60;57.50;;;;;;5031233;28;20184;-70
2023/03/23 11:26:16;;;;;;;2.03;0.90;;;18.50;57.60;;;;;;5030977;28;20226;-69
2023/03/23 11:28:46;;;;;;;2.33;0.93;;;18.50;57.60;;;;;;5031620;28;20182;-69
2023/03/23 11:31:12;;;;;;;2.72;1.30;;;18.50;57.80;;;;;;5030816;28;20553;-71
2023/03/23 11:33:47;;;;;;;2.55;1.20;;;18.40;57.80;;;;;;5030523;28;20179;-72
2023/03/23 11:36:13;;;;;;;3.17;0.88;;;18.50;57.90;;;;;;5032166;28;20183;-72
2023/03/23 11:38:39;;;;;;;2.72;1.10;;;18.40;57.80;;;;;;5030808;28;20176;-71
2023/03/23 11:41:10;;;;;;;2.00;0.88;;;18.40;57.80;;;;;;5031197;28;20183;-70
2023/03/23 11:43:43;;;;;;;1.98;0.98;;;18.40;57.80;;;;;;5035353;28;20245;-69
2023/03/23 11:46:18;;;;;;;1.80;1.00;;;18.50;57.80;;;;;;5034811;28;20184;-64
2023/03/23 11:48:59;;;;;;;1.52;1.05;;;18.50;57.70;;;;;;5033401;28;20175;-66
2023/03/23 11:51:34;;;;;;;2.83;1.02;;;18.60;57.80;;;;;;5034066;28;20216;-64
2023/03/23 11:54:17;;;;;;;5.35;1.27;;;18.50;57.80;;;;;;5034632;28;20175;-65
2023/03/23 11:56:44;;;;;;;3.92;1.00;;;18.50;57.90;;;;;;5032885;28;20665;-67
2023/03/23 11:59:17;;;;;;;3.70;0.98;;;18.40;57.90;;;;;;5034807;28;20630;-66
2023/03/23 12:02:07;;;;;;;2.13;0.88;;;18.40;58.10;;;;;;5032772;28;20199;-65
2023/03/23 12:04:35;;;;;;;2.92;1.52;;;18.30;58.20;;;;;;5034925;28;20572;-64
2023/03/23 12:07:13;;;;;;;2.17;0.80;;;18.30;58.20;;;;;;5033264;28;20245;-64
2023/03/23 12:09:52;;;;;;;3.03;1.05;;;18.30;58.20;;;;;;5034256;28;20183;-64
2023/03/23 12:12:33;;;;;;;4.70;1.13;;;18.20;58.30;;;;;;5033414;28;20238;-65
2023/03/23 12:15:24;;;;;;;2.15;0.80;;;18.10;59.00;;;;;;5034277;28;20258;-65
2023/03/23 12:18:17;;;;;;;1.52;1.10;;;18.10;58.40;;;;;;5032747;28;20167;-65
2023/03/23 12:20:57;;;;;;;2.05;1.30;;;18.10;58.50;;;;;;5033796;28;20716;-64
2023/03/23 12:23:39;;;;;;;2.03;1.10;;;18.10;58.50;;;;;;5032526;28;20242;-64
2023/03/23 12:26:28;;;;;;;3.47;1.35;;;18.10;58.50;;;;;;5034136;28;20648;-64
2023/03/23 12:28:59;;;;;;;2.28;1.00;;;18.10;58.50;;;;;;5033054;28;20180;-64
2023/03/23 12:31:30;;;;;;;1.65;0.93;;;18.10;58.50;;;;;;5032204;28;20291;-63
2023/03/23 12:34:17;;;;;;;1.58;0.90;;;18.10;58.40;;;;;;5033958;28;20626;-63
2023/03/23 12:36:51;;;;;;;4.85;0.88;;;18.30;58.50;;;;;;5031983;28;20563;-63
2023/03/23 12:39:58;;;;;;;2.95;1.10;;;18.40;58.20;;;;;;5034273;28;20214;-64
2023/03/23 12:42:30;;;;;;;1.83;0.93;;;18.50;58.10;;;;;;5034598;28;20176;-62
2023/03/23 12:45:05;;;;;;;3.42;1.20;;;18.50;58.20;;;;;;5033165;28;20267;-65
2023/03/23 12:47:44;;;;;;;3.80;1.08;;;18.50;58.30;;;;;;5033607;28;20545;-65
2023/03/23 12:50:28;;;;;;;4.18;1.33;;;18.40;58.20;;;;;;5033834;28;20213;-64
2023/03/23 12:53:20;;;;;;;1.92;1.30;;;18.30;58.20;;;;;;5031774;28;20226;-65
2023/03/23 12:56:11;;;;;;;5.32;1.30;;;18.30;58.40;;;;;;5032763;28;20544;-66
2023/03/23 12:58:46;;;;;;;3.10;1.08;;;18.20;58.40;;;;;;5032088;28;20203;-65
2023/03/23 13:01:25;;;;;;;2.28;1.33;;;18.20;58.60;;;;;;5032655;28;20175;-65